Time,TemperatureF,DewpointF,PressureIn,WindDirection,WindDirectionDegrees,WindSpeedMPH,WindSpeedGustMPH,Humidity,HourlyPrecipIn,Conditions,Clouds,dailyrainin,SoftwareType,DateUTC
2013-07-27 00:10:00,69.8,62.0,29.90,SW,219,0.0,-999.0,76,-99.99,,,0.00,weatherlink.com 1.10,2013-07-27 04:10:00,
2013-07-27 00:25:00,69.6,62.0,29.90,SW,219,2.0,-999.0,77,-99.99,,,0.00,weatherlink.com 1.10,2013-07-27 04:25:00,
2013-07-27 00:40:00,69.5,63.0,29.91,SW,220,3.0,-999.0,79,-99.99,,,0.00,weatherlink.com 1.10,2013-07-27 04:40:00,
2013-07-27 00:55:00,68.2,63.0,29.91,West,277,6.0,-999.0,82,-99.99,,,0.00,weatherlink.com 1.10,2013-07-27 04:55:00,
2013-07-27 01:10:00,66.6,63.0,29.91,West,277,5.0,-999.0,88,-99.99,,,0.05,weatherlink.com 1.10,2013-07-27 05:10:00,
2013-07-27 01:25:00,66.2,63.0,29.89,SW,236,2.0,-999.0,89,-99.99,,,0.07,weatherlink.com 1.10,2013-07-27 05:25:00,
2013-07-27 01:40:00,66.3,63.0,29.90,WSW,240,11.0,-999.0,90,-99.99,,,0.07,weatherlink.com 1.10,2013-07-27 05:40:00,
2013-07-27 01:55:00,65.7,63.0,29.88,SW,236,0.0,-999.0,90,-99.99,,,0.13,weatherlink.com 1.10,2013-07-27 05:55:00,
2013-07-27 02:10:00,65.4,63.0,29.88,SW,236,0.0,-999.0,91,-99.99,,,0.13,weatherlink.com 1.10,2013-07-27 06:10:00,
2013-07-27 02:25:00,65.4,63.0,29.88,SW,236,0.0,-999.0,92,-99.99,,,0.13,weatherlink.com 1.10,2013-07-27 06:25:00,
2013-07-27 02:41:00,65.5,63.0,29.88,SW,236,4.0,-999.0,92,-99.99,,,0.13,weatherlink.com 1.10,2013-07-27 06:41:00,
2013-07-27 02:56:00,65.6,64.0,29.87,SW,236,0.0,-999.0,93,-99.99,,,0.13,weatherlink.com 1.10,2013-07-27 06:56:00,
2013-07-27 03:11:00,65.6,63.0,29.87,SW,236,0.0,-999.0,92,-99.99,,,0.13,weatherlink.com 1.10,2013-07-27 07:11:00,
2013-07-27 03:26:00,65.6,63.0,29.86,SW,236,1.0,-999.0,92,-99.99,,,0.13,weatherlink.com 1.10,2013-07-27 07:26:00,
2013-07-27 03:41:00,65.5,63.0,29.86,SW,223,0.0,-999.0,90,-99.99,,,0.13,weatherlink.com 1.10,2013-07-27 07:41:00,
2013-07-27 03:56:00,65.2,62.0,29.86,SSW,204,1.0,-999.0,90,-99.99,,,0.13,weatherlink.com 1.10,2013-07-27 07:56:00,
2013-07-27 04:11:00,64.9,62.0,29.85,SSW,196,0.0,-999.0,90,-99.99,,,0.13,weatherlink.com 1.10,2013-07-27 08:11:00,
2013-07-27 04:26:00,64.7,62.0,29.85,South,191,4.0,-999.0,91,-99.99,,,0.13,weatherlink.com 1.10,2013-07-27 08:26:00,
2013-07-27 04:41:00,64.6,62.0,29.85,South,190,1.0,-999.0,92,-99.99,,,0.13,weatherlink.com 1.10,2013-07-27 08:41:00,
2013-07-27 04:56:00,64.5,63.0,29.85,South,190,0.0,-999.0,93,-99.99,,,0.00,weatherlink.com 1.10,2013-07-27 08:56:00,
2013-07-27 05:11:00,64.5,63.0,29.84,South,186,0.0,-999.0,93,-99.99,,,0.00,weatherlink.com 1.10,2013-07-27 09:11:00,
2013-07-27 05:26:00,64.5,63.0,29.84,South,184,1.0,-999.0,94,-99.99,,,0.00,weatherlink.com 1.10,2013-07-27 09:26:00,
2013-07-27 05:42:00,64.6,63.0,29.84,South,180,7.0,-999.0,94,-99.99,,,0.00,weatherlink.com 1.10,2013-07-27 09:42:00,
2013-07-27 05:57:00,64.6,63.0,29.84,South,179,2.0,-999.0,94,-99.99,,,0.00,weatherlink.com 1.10,2013-07-27 09:57:00,
2013-07-27 06:12:00,64.7,63.0,29.84,South,183,1.0,-999.0,94,-99.99,,,0.00,weatherlink.com 1.10,2013-07-27 10:12:00,
2013-07-27 06:27:00,64.7,63.0,29.84,South,184,4.0,-999.0,95,-99.99,,,0.00,weatherlink.com 1.10,2013-07-27 10:27:00,
2013-07-27 06:42:00,64.8,63.0,29.84,South,175,4.0,-999.0,95,-99.99,,,0.00,weatherlink.com 1.10,2013-07-27 10:42:00,
2013-07-27 06:57:00,64.9,64.0,29.84,South,170,2.0,-999.0,95,-99.99,,,0.00,weatherlink.com 1.10,2013-07-27 10:57:00,
2013-07-27 07:12:00,64.9,63.0,29.84,South,188,0.0,-999.0,94,-99.99,,,0.00,weatherlink.com 1.10,2013-07-27 11:12:00,
2013-07-27 07:27:00,65.0,63.0,29.84,South,180,4.0,-999.0,94,-99.99,,,0.00,weatherlink.com 1.10,2013-07-27 11:27:00,
2013-07-27 07:42:00,65.0,63.0,29.84,South,186,2.0,-999.0,94,-99.99,,,0.00,weatherlink.com 1.10,2013-07-27 11:42:00,
2013-07-27 07:57:00,65.1,63.0,29.84,SSW,193,1.0,-999.0,94,-99.99,,,0.00,weatherlink.com 1.10,2013-07-27 11:57:00,
2013-07-27 08:12:00,65.2,64.0,29.83,South,189,4.0,-999.0,94,-99.99,,,0.00,weatherlink.com 1.10,2013-07-27 12:12:00,
2013-07-27 08:27:00,65.2,64.0,29.83,South,187,3.0,-999.0,94,-99.99,,,0.00,weatherlink.com 1.10,2013-07-27 12:27:00,
2013-07-27 08:42:00,65.3,64.0,29.84,South,186,5.0,-999.0,94,-99.99,,,0.00,weatherlink.com 1.10,2013-07-27 12:42:00,
2013-07-27 08:58:00,65.5,64.0,29.83,South,187,3.0,-999.0,94,-99.99,,,0.00,weatherlink.com 1.10,2013-07-27 12:58:00,
2013-07-27 09:13:00,65.6,64.0,29.83,South,190,1.0,-999.0,94,-99.99,,,0.00,weatherlink.com 1.10,2013-07-27 13:13:00,
2013-07-27 09:28:00,66.0,64.0,29.83,SSW,193,1.0,-999.0,94,-99.99,,,0.00,weatherlink.com 1.10,2013-07-27 13:28:00,
2013-07-27 09:43:00,66.1,64.0,29.82,SSW,192,1.0,-999.0,93,-99.99,,,0.00,weatherlink.com 1.10,2013-07-27 13:43:00,
2013-07-27 09:58:00,66.1,64.0,29.82,SSW,196,2.0,-999.0,93,-99.99,,,0.00,weatherlink.com 1.10,2013-07-27 13:58:00,
2013-07-27 10:13:00,66.2,64.0,29.82,South,188,1.0,-999.0,93,-99.99,,,0.00,weatherlink.com 1.10,2013-07-27 14:13:00,
2013-07-27 10:28:00,66.2,64.0,29.82,SSW,194,4.0,-999.0,93,-99.99,,,0.00,weatherlink.com 1.10,2013-07-27 14:28:00,
2013-07-27 10:43:00,66.6,65.0,29.82,South,184,1.0,-999.0,93,-99.99,,,0.00,weatherlink.com 1.10,2013-07-27 14:43:00,
2013-07-27 10:58:00,66.7,65.0,29.81,SSW,194,4.0,-999.0,93,-99.99,,,0.00,weatherlink.com 1.10,2013-07-27 14:58:00,
2013-07-27 11:13:00,66.7,65.0,29.81,SSW,198,4.0,-999.0,93,-99.99,,,0.00,weatherlink.com 1.10,2013-07-27 15:13:00,
2013-07-27 11:28:00,66.9,65.0,29.81,SSW,206,1.0,-999.0,93,-99.99,,,0.00,weatherlink.com 1.10,2013-07-27 15:28:00,
2013-07-27 11:44:00,67.2,65.0,29.81,SSW,212,11.0,-999.0,93,-99.99,,,0.00,weatherlink.com 1.10,2013-07-27 15:44:00,
2013-07-27 11:59:00,67.4,65.0,29.81,SSW,206,0.0,-999.0,93,-99.99,,,0.00,weatherlink.com 1.10,2013-07-27 15:59:00,
2013-07-27 12:14:00,67.6,65.0,29.80,SSW,211,2.0,-999.0,92,-99.99,,,0.00,weatherlink.com 1.10,2013-07-27 16:14:00,
2013-07-27 12:29:00,67.9,66.0,29.80,SSW,194,1.0,-999.0,92,-99.99,,,0.00,weatherlink.com 1.10,2013-07-27 16:29:00,
2013-07-27 12:44:00,68.0,65.0,29.79,SSE,156,5.0,-999.0,90,-99.99,,,0.00,weatherlink.com 1.10,2013-07-27 16:44:00,
2013-07-27 12:59:00,67.6,65.0,29.79,SSE,163,6.0,-999.0,91,-99.99,,,0.00,weatherlink.com 1.10,2013-07-27 16:59:00,
2013-07-27 13:14:00,68.2,66.0,29.78,SSE,160,4.0,-999.0,91,-99.99,,,0.00,weatherlink.com 1.10,2013-07-27 17:14:00,
2013-07-27 13:29:00,70.4,67.0,29.77,SSW,203,2.0,-999.0,89,-99.99,,,0.00,weatherlink.com 1.10,2013-07-27 17:29:00,
2013-07-27 13:44:00,71.6,67.0,29.77,SSW,202,4.0,-999.0,86,-99.99,,,0.00,weatherlink.com 1.10,2013-07-27 17:44:00,
2013-07-27 13:59:00,73.7,68.0,29.76,SW,218,10.0,-999.0,81,-99.99,,,0.00,weatherlink.com 1.10,2013-07-27 17:59:00,
2013-07-27 14:15:00,75.1,68.0,29.75,SSE,155,7.0,-999.0,78,-99.99,,,0.00,weatherlink.com 1.10,2013-07-27 18:15:00,
2013-07-27 14:30:00,76.0,67.0,29.75,WSW,240,12.0,-999.0,73,-99.99,,,0.00,weatherlink.com 1.10,2013-07-27 18:30:00,
2013-07-27 14:45:00,76.6,66.0,29.75,SSE,155,2.0,-999.0,70,-99.99,,,0.00,weatherlink.com 1.10,2013-07-27 18:45:00,
2013-07-27 15:00:00,76.2,64.0,29.75,WSW,256,11.0,-999.0,65,-99.99,,,0.00,weatherlink.com 1.10,2013-07-27 19:00:00,
2013-07-27 15:15:00,76.9,61.0,29.75,SW,232,10.0,-999.0,59,-99.99,,,0.00,weatherlink.com 1.10,2013-07-27 19:15:00,
2013-07-27 15:30:00,75.9,58.0,29.75,West,272,11.0,-999.0,55,-99.99,,,0.00,weatherlink.com 1.10,2013-07-27 19:30:00,
2013-07-27 15:45:00,77.2,60.0,29.75,WSW,237,14.0,-999.0,55,-99.99,,,0.00,weatherlink.com 1.10,2013-07-27 19:45:00,
2013-07-27 16:00:00,77.2,56.0,29.74,SSW,213,11.0,-999.0,49,-99.99,,,0.00,weatherlink.com 1.10,2013-07-27 20:00:00,
2013-07-27 16:15:00,77.2,58.0,29.74,SW,232,15.0,-999.0,52,-99.99,,,0.00,weatherlink.com 1.10,2013-07-27 20:15:00,
2013-07-27 16:30:00,77.2,57.0,29.74,SW,223,11.0,-999.0,50,-99.99,,,0.00,weatherlink.com 1.10,2013-07-27 20:30:00,
2013-07-27 16:46:00,77.6,56.0,29.74,SW,236,14.0,-999.0,48,-99.99,,,0.00,weatherlink.com 1.10,2013-07-27 20:46:00,
2013-07-27 17:01:00,77.1,57.0,29.74,SW,222,12.0,-999.0,50,-99.99,,,0.00,weatherlink.com 1.10,2013-07-27 21:01:00,
2013-07-27 17:16:00,76.2,58.0,29.74,SW,233,14.0,-999.0,53,-99.99,,,0.00,weatherlink.com 1.10,2013-07-27 21:16:00,
2013-07-27 17:31:00,75.5,60.0,29.75,West,274,29.0,-999.0,59,-99.99,,,0.00,weatherlink.com 1.10,2013-07-27 21:31:00,
2013-07-27 17:46:00,72.5,60.0,29.76,West,268,11.0,-999.0,66,-99.99,,,0.00,weatherlink.com 1.10,2013-07-27 21:46:00,
2013-07-27 18:01:00,72.1,61.0,29.76,WNW,284,7.0,-999.0,69,-99.99,,,0.00,weatherlink.com 1.10,2013-07-27 22:01:00,
2013-07-27 18:16:00,72.3,61.0,29.76,WNW,292,18.0,-999.0,67,-99.99,,,0.00,weatherlink.com 1.10,2013-07-27 22:16:00,
2013-07-27 18:31:00,71.5,61.0,29.77,West,271,14.0,-999.0,69,-99.99,,,0.00,weatherlink.com 1.10,2013-07-27 22:31:00,
2013-07-27 18:46:00,71.6,60.0,29.76,West,277,14.0,-999.0,67,-99.99,,,0.00,weatherlink.com 1.10,2013-07-27 22:46:00,
2013-07-27 19:01:00,70.9,60.0,29.77,NW,310,17.0,-999.0,68,-99.99,,,0.00,weatherlink.com 1.10,2013-07-27 23:01:00,
2013-07-27 19:16:00,70.0,60.0,29.78,WNW,288,14.0,-999.0,70,-99.99,,,0.00,weatherlink.com 1.10,2013-07-27 23:16:00,
2013-07-27 19:31:00,69.5,60.0,29.78,WNW,288,7.0,-999.0,72,-99.99,,,0.00,weatherlink.com 1.10,2013-07-27 23:31:00,
2013-07-27 19:46:00,69.2,60.0,29.79,WNW,293,5.0,-999.0,73,-99.99,,,0.00,weatherlink.com 1.10,2013-07-27 23:46:00,
2013-07-27 20:17:00,67.1,58.0,29.81,NW,313,9.0,-999.0,73,-99.99,,,0.00,weatherlink.com 1.10,2013-07-28 00:17:00,
2013-07-27 20:32:00,66.3,57.0,29.81,WNW,296,21.0,-999.0,73,-99.99,,,0.00,weatherlink.com 1.10,2013-07-28 00:32:00,
2013-07-27 20:47:00,65.3,57.0,29.82,WNW,297,19.0,-999.0,75,-99.99,,,0.00,weatherlink.com 1.10,2013-07-28 00:47:00,
2013-07-27 21:02:00,64.4,57.0,29.83,WNW,300,7.0,-999.0,76,-99.99,,,0.00,weatherlink.com 1.10,2013-07-28 01:02:00,
2013-07-27 21:17:00,63.5,57.0,29.83,WNW,296,8.0,-999.0,78,-99.99,,,0.00,weatherlink.com 1.10,2013-07-28 01:17:00,
2013-07-27 21:32:00,63.2,56.0,29.84,WNW,297,8.0,-999.0,76,-99.99,,,0.00,weatherlink.com 1.10,2013-07-28 01:32:00,
2013-07-27 21:47:00,62.7,55.0,29.84,WNW,289,2.0,-999.0,75,-99.99,,,0.00,weatherlink.com 1.10,2013-07-28 01:47:00,
2013-07-27 22:02:00,62.3,55.0,29.85,WNW,289,1.0,-999.0,77,-99.99,,,0.00,weatherlink.com 1.10,2013-07-28 02:02:00,
2013-07-27 22:17:00,61.8,55.0,29.86,WNW,289,4.0,-999.0,79,-99.99,,,0.00,weatherlink.com 1.10,2013-07-28 02:17:00,
2013-07-27 22:32:00,61.1,55.0,29.86,WNW,289,2.0,-999.0,81,-99.99,,,0.00,weatherlink.com 1.10,2013-07-28 02:32:00,
2013-07-27 22:48:00,60.5,55.0,29.87,WNW,289,0.0,-999.0,83,-99.99,,,0.00,weatherlink.com 1.10,2013-07-28 02:48:00,
2013-07-27 23:03:00,60.1,55.0,29.87,WNW,289,2.0,-999.0,84,-99.99,,,0.00,weatherlink.com 1.10,2013-07-28 03:03:00,
2013-07-27 23:18:00,59.6,54.0,29.87,WNW,289,2.0,-999.0,83,-99.99,,,0.00,weatherlink.com 1.10,2013-07-28 03:18:00,
2013-07-27 23:33:00,59.2,54.0,29.87,WNW,289,2.0,-999.0,84,-99.99,,,0.00,weatherlink.com 1.10,2013-07-28 03:33:00,
2013-07-27 23:48:00,58.7,54.0,29.87,WNW,289,0.0,-999.0,85,-99.99,,,0.00,weatherlink.com 1.10,2013-07-28 03:48:00,